Time;durP1;ratioP1;P1;durP2;ratioP2;P2;SDS_P1;SDS_P2;PMS_P1;PMS_P2;Temp;Humidity;BMP_temperature;BMP_pressure;BME280_temperature;BME280_humidity;BME280_pressure;Samples;Min_cycle;Max_cycle;Signal;HPM_P1;HPM_P2
2023/11/08 00:02:15;;;;;;;;;1.00;1.00;;;;;10.09;74.67;101379.84;5061349;28;45299;-59
2023/11/08 00:04:40;;;;;;;;;2.00;2.00;;;;;10.08;74.94;101378.97;5062346;28;45608;-59
2023/11/08 00:07:05;;;;;;;;;3.00;2.00;;;;;10.05;74.49;101395.03;5061482;28;61406;-57
2023/11/08 00:09:31;;;;;;;;;1.33;1.33;;;;;10.05;74.92;101391.50;5061055;28;46000;-58
2023/11/08 00:11:58;;;;;;;;;1.00;1.00;;;;;10.03;75.63;101388.91;5064609;28;45517;-59
2023/11/08 00:14:24;;;;;;;;;3.00;2.00;;;;;10.01;76.01;101387.22;5060766;28;45578;-58
2023/11/08 00:16:49;;;;;;;;;1.67;1.67;;;;;9.99;75.29;101381.97;5061049;28;46580;-58
2023/11/08 00:19:16;;;;;;;;;1.00;1.00;;;;;9.99;75.47;101381.13;5059698;28;72051;-59
2023/11/08 00:21:42;;;;;;;;;1.67;1.00;;;;;9.99;75.29;101373.16;5061737;28;45346;-58
2023/11/08 00:24:07;;;;;;;;;2.67;1.33;;;;;9.99;76.18;101375.81;5060375;28;45392;-59
2023/11/08 00:26:32;;;;;;;;;2.33;1.00;;;;;9.99;75.66;101378.47;5068363;28;46119;-58
2023/11/08 00:28:58;;;;;;;;;2.00;2.00;;;;;9.96;75.55;101376.78;5061165;28;72186;-59
2023/11/08 00:31:24;;;;;;;;;1.67;1.67;;;;;9.92;75.86;101370.72;5062481;28;45354;-58
2023/11/08 00:33:51;;;;;;;;;3.00;1.00;;;;;9.92;76.03;101367.19;5061207;28;45558;-58
2023/11/08 00:36:17;;;;;;;;;1.67;1.67;;;;;9.92;76.52;101372.50;5068237;28;45452;-58
2023/11/08 00:38:42;;;;;;;;;2.00;2.00;;;;;9.88;77.52;101365.56;5076355;27;45370;-59
2023/11/08 00:41:07;;;;;;;;;4.00;2.00;;;;;9.87;76.41;101363.88;5060390;28;69443;-58
2023/11/08 00:43:33;;;;;;;;;3.33;2.00;;;;;9.86;76.76;101359.47;5062150;28;53101;-58
2023/11/08 00:46:02;;;;;;;;;1.33;1.33;;;;;9.85;76.21;101360.38;5058992;28;75511;-58
2023/11/08 00:48:27;;;;;;;;;3.00;3.00;;;;;9.84;76.71;101358.66;5059640;28;45541;-58
2023/11/08 00:50:54;;;;;;;;;3.00;2.00;;;;;9.82;77.03;101358.72;5059980;28;45397;-58
2023/11/08 00:53:20;;;;;;;;;2.00;2.00;;;;;9.82;76.83;101363.16;5060684;28;45591;-59
2023/11/08 00:55:45;;;;;;;;;2.00;2.00;;;;;9.82;76.96;101365.81;5060052;28;48894;-59
2023/11/08 00:58:10;;;;;;;;;1.00;1.00;;;;;9.82;77.00;101374.66;5063554;28;63127;-59
2023/11/08 01:00:36;;;;;;;;;2.00;2.00;;;;;9.82;76.91;101373.81;5060171;28;46997;-58
2023/11/08 01:03:01;;;;;;;;;3.00;2.00;;;;;9.81;76.82;101383.53;5060447;28;46179;-58
2023/11/08 01:05:27;;;;;;;;;4.33;2.00;;;;;9.82;77.09;101376.47;5075674;27;45405;-58
2023/11/08 01:07:52;;;;;;;;;3.00;3.00;;;;;9.82;77.20;101384.44;5057814;28;45267;-58
2023/11/08 01:10:20;;;;;;;;;2.00;2.00;;;;;9.82;76.71;101384.44;5060121;28;45372;-58
2023/11/08 01:12:46;;;;;;;;;2.00;1.00;;;;;9.80;76.94;101381.78;5060373;28;45357;-58
2023/11/08 01:15:11;;;;;;;;;2.00;2.00;;;;;9.80;77.18;101383.59;5059778;28;45461;-60
2023/11/08 01:17:37;;;;;;;;;2.67;2.00;;;;;9.79;77.04;101393.38;5060352;28;45336;-59
2023/11/08 01:20:02;;;;;;;;;5.00;3.00;;;;;9.75;77.24;101397.03;5058690;28;45364;-57
2023/11/08 01:22:28;;;;;;;;;2.00;2.00;;;;;9.72;77.52;101398.03;5059078;28;45362;-58
2023/11/08 01:24:53;;;;;;;;;2.00;2.00;;;;;9.70;77.85;101397.22;5058747;28;75418;-58
2023/11/08 01:27:18;;;;;;;;;3.00;3.00;;;;;9.69;77.35;101400.81;5069593;28;72045;-57
2023/11/08 01:29:44;;;;;;;;;4.00;2.67;;;;;9.67;77.47;101397.31;5060260;28;45390;-58
2023/11/08 01:32:09;;;;;;;;;2.00;2.00;;;;;9.69;77.42;101399.94;5059416;28;45486;-58
2023/11/08 01:34:35;;;;;;;;;3.00;3.00;;;;;9.67;77.70;101402.63;5057492;28;74480;-58
2023/11/08 01:37:00;;;;;;;;;1.00;1.00;;;;;9.67;77.71;101397.31;5059387;28;45641;-58
2023/11/08 01:39:25;;;;;;;;;3.00;3.00;;;;;9.65;77.45;101393.88;5059049;28;67219;-58
2023/11/08 01:41:51;;;;;;;;;2.00;2.00;;;;;9.66;77.68;101406.25;5070100;28;69455;-58
2023/11/08 01:44:19;;;;;;;;;2.33;1.67;;;;;9.65;77.40;101403.63;5067434;28;46521;-58
2023/11/08 01:46:49;;;;;;;;;1.67;1.67;;;;;9.65;77.69;101403.63;5060956;28;45306;-58
2023/11/08 01:49:14;;;;;;;;;1.33;1.33;;;;;9.65;78.02;101400.97;5059599;28;45306;-58
2023/11/08 01:51:41;;;;;;;;;3.00;3.00;;;;;9.65;77.89;101403.63;5058146;28;45299;-58
2023/11/08 01:54:06;;;;;;;;;2.00;2.00;;;;;9.65;78.22;101399.19;5059018;28;45580;-58
2023/11/08 01:56:32;;;;;;;;;6.33;2.67;;;;;9.66;78.11;101410.66;5058128;28;45844;-60
2023/11/08 01:58:57;;;;;;;;;2.00;2.00;;;;;9.64;77.86;101400.09;5058725;28;65908;-58
2023/11/08 02:01:23;;;;;;;;;4.00;3.00;;;;;9.65;78.02;101404.50;5059676;28;45235;-59
2023/11/08 02:03:49;;;;;;;;;2.00;2.00;;;;;9.66;77.85;101400.94;5058833;28;72514;-59
2023/11/08 02:06:15;;;;;;;;;4.00;2.33;;;;;9.65;77.71;101408.94;5058838;28;45336;-59
2023/11/08 02:08:41;;;;;;;;;2.00;2.00;;;;;9.64;77.93;101396.59;5059912;28;45189;-58
2023/11/08 02:11:08;;;;;;;;;2.00;2.00;;;;;9.62;77.95;101399.31;5057617;28;45358;-58
2023/11/08 02:13:33;;;;;;;;;2.00;2.00;;;;;9.61;78.24;101392.25;5059336;28;46393;-59
2023/11/08 02:15:59;;;;;;;;;3.00;3.00;;;;;9.60;78.11;101390.53;5058848;28;45468;-58
2023/11/08 02:18:25;;;;;;;;;3.00;3.00;;;;;9.59;78.24;101388.78;5059641;28;45429;-58
2023/11/08 02:20:51;;;;;;;;;2.67;2.67;;;;;9.59;78.48;101394.09;5059370;28;45517;-59
2023/11/08 02:23:17;;;;;;;;;2.33;2.33;;;;;9.57;78.10;101394.16;5074981;28;45427;-59
2023/11/08 02:25:43;;;;;;;;;2.00;2.00;;;;;9.57;78.39;101380.88;5058038;28;73311;-60
2023/11/08 02:28:09;;;;;;;;;1.00;1.00;;;;;9.56;78.32;101388.91;5059368;28;45240;-59
2023/11/08 02:30:34;;;;;;;;;2.33;2.33;;;;;9.55;78.45;101384.50;5058076;28;45350;-59
2023/11/08 02:32:59;;;;;;;;;3.00;3.00;;;;;9.53;78.96;101383.69;5058419;28;52700;-59
2023/11/08 02:35:25;;;;;;;;;3.33;2.00;;;;;9.50;78.63;101382.00;5059115;28;45328;-59
2023/11/08 02:37:51;;;;;;;;;2.00;2.00;;;;;9.48;79.20;101369.69;5058061;28;45252;-59
2023/11/08 02:40:16;;;;;;;;;3.00;2.33;;;;;9.48;78.97;101369.69;5091366;27;46209;-60
2023/11/08 02:42:43;;;;;;;;;3.00;3.00;;;;;9.43;79.62;101373.41;5058868;28;47311;-59
2023/11/08 02:45:09;;;;;;;;;2.67;2.67;;;;;9.39;79.37;101369.13;5060756;28;45386;-59
2023/11/08 02:47:34;;;;;;;;;2.33;2.00;;;;;9.39;79.44;101370.94;5059383;28;46741;-57
2023/11/08 02:50:00;;;;;;;;;3.33;2.33;;;;;9.39;79.51;101357.66;5067430;28;61003;-58
2023/11/08 02:52:25;;;;;;;;;4.00;2.00;;;;;9.37;79.50;101356.81;5067791;28;46128;-59
2023/11/08 02:54:52;;;;;;;;;3.00;2.00;;;;;9.35;79.68;101351.56;5063546;27;45273;-59
2023/11/08 02:57:18;;;;;;;;;3.00;3.00;;;;;9.33;79.89;101350.75;5059233;28;45360;-58
2023/11/08 02:59:44;;;;;;;;;4.33;4.33;;;;;9.32;79.87;101351.69;5066037;28;45371;-58
2023/11/08 03:02:09;;;;;;;;;5.00;3.33;;;;;9.30;79.71;101355.34;5061561;28;45636;-59
2023/11/08 03:04:37;;;;;;;;;3.33;3.33;;;;;9.27;79.93;101358.97;5065819;28;45305;-59
2023/11/08 03:07:03;;;;;;;;;2.33;1.33;;;;;9.25;80.06;101353.69;5068910;28;45437;-59
2023/11/08 03:09:29;;;;;;;;;5.67;4.00;;;;;9.22;80.14;101356.47;5070982;28;45323;-59
2023/11/08 03:11:57;;;;;;;;;4.00;2.67;;;;;9.21;80.13;101356.50;5056140;28;46913;-58
2023/11/08 03:14:23;;;;;;;;;3.00;3.00;;;;;9.19;80.10;101351.28;5061277;28;45311;-58
2023/11/08 03:16:48;;;;;;;;;3.33;3.00;;;;;9.18;80.39;101356.63;5062207;28;45387;-58
2023/11/08 03:19:13;;;;;;;;;3.00;2.00;;;;;9.16;80.18;101351.34;5061396;28;59185;-58
2023/11/08 03:21:43;;;;;;;;;1.67;1.67;;;;;9.13;80.52;101361.25;5068882;28;68188;-58
2023/11/08 03:24:09;;;;;;;;;4.00;2.00;;;;;9.12;80.74;101367.47;5061125;28;45387;-58
2023/11/08 03:26:34;;;;;;;;;2.00;2.00;;;;;9.10;80.67;101364.88;5067032;28;70280;-58
2023/11/08 03:28:59;;;;;;;;;5.00;3.00;;;;;9.08;80.80;101362.25;5060539;28;70279;-58
2023/11/08 03:31:25;;;;;;;;;4.67;3.00;;;;;9.08;81.10;101367.53;5065375;28;74610;-57
2023/11/08 03:33:50;;;;;;;;;2.00;2.00;;;;;9.08;81.08;101366.69;5062425;28;69855;-57
2023/11/08 03:36:15;;;;;;;;;5.00;2.67;;;;;9.07;81.24;101370.25;5063676;28;69429;-58
2023/11/08 03:38:40;;;;;;;;;2.33;2.33;;;;;9.11;80.94;101371.88;5059604;28;69205;-58
2023/11/08 03:41:06;;;;;;;;;9.00;4.00;;;;;9.16;81.51;101372.59;5060643;28;75872;-58
2023/11/08 03:43:31;;;;;;;;;3.00;3.00;;;;;9.20;81.19;101368.03;5062587;28;71336;-59
2023/11/08 03:45:57;;;;;;;;;5.00;3.00;;;;;9.24;81.30;101364.34;5060891;28;65384;-59
2023/11/08 03:48:22;;;;;;;;;2.33;2.00;;;;;9.25;81.05;101358.13;5051678;28;45676;-59
2023/11/08 03:50:47;;;;;;;;;3.00;2.00;;;;;9.26;81.54;101352.78;5064510;28;75399;-59
2023/11/08 03:53:13;;;;;;;;;2.00;2.00;;;;;9.26;81.28;101349.25;5060457;28;51905;-59
2023/11/08 03:55:38;;;;;;;;;4.00;4.00;;;;;9.21;81.26;101352.06;5060450;28;45239;-59
2023/11/08 03:58:04;;;;;;;;;2.00;2.00;;;;;9.20;82.32;101354.78;5061073;28;45598;-59
2023/11/08 04:00:29;;;;;;;;;1.33;1.33;;;;;9.17;81.78;101357.56;5061551;28;46066;-59
2023/11/08 04:02:55;;;;;;;;;2.67;2.67;;;;;9.16;81.91;101353.16;5060593;28;45271;-59
2023/11/08 04:05:20;;;;;;;;;5.00;2.00;;;;;9.13;81.97;101347.97;5061866;28;45375;-59
2023/11/08 04:07:46;;;;;;;;;3.00;3.00;;;;;9.09;82.79;101349.84;5061299;28;45600;-59
2023/11/08 04:10:11;;;;;;;;;4.33;3.00;;;;;9.07;82.51;101349.91;5060776;28;45374;-59
2023/11/08 04:12:37;;;;;;;;;3.00;3.00;;;;;9.06;82.96;101352.59;5061070;28;45340;-59
2023/11/08 04:15:07;;;;;;;;;6.00;4.00;;;;;9.04;83.71;101362.41;5060213;28;45456;-59
2023/11/08 04:17:33;;;;;;;;;3.33;3.33;;;;;9.02;83.87;101362.47;5060953;28;45749;-59
2023/11/08 04:19:58;;;;;;;;;1.00;1.00;;;;;9.04;83.34;101354.47;5060639;28;45459;-59
2023/11/08 04:22:23;;;;;;;;;1.00;1.00;;;;;9.05;83.78;101356.19;5060002;28;72380;-59
2023/11/08 04:24:49;;;;;;;;;3.67;3.00;;;;;9.04;84.42;101351.81;5058642;28;67289;-59
2023/11/08 04:27:14;;;;;;;;;3.00;1.67;;;;;9.01;84.20;101358.09;5058443;28;69499;-59
2023/11/08 04:29:39;;;;;;;;;2.67;2.67;;;;;9.00;84.93;101352.84;5060853;28;74429;-59
2023/11/08 04:32:06;;;;;;;;;3.00;3.00;;;;;8.98;85.50;101352.00;5062605;28;45428;-59
2023/11/08 04:34:31;;;;;;;;;4.67;2.67;;;;;8.95;85.60;101345.03;5061776;28;45450;-59
2023/11/08 04:36:57;;;;;;;;;1.33;1.33;;;;;8.93;85.38;101337.13;5060575;28;45498;-59
2023/11/08 04:39:22;;;;;;;;;3.00;3.00;;;;;8.92;86.07;101334.53;5060716;28;45951;-59
2023/11/08 04:41:49;;;;;;;;;3.67;2.67;;;;;8.93;85.50;101330.97;5060821;28;45284;-59
2023/11/08 04:44:14;;;;;;;;;3.00;1.33;;;;;8.93;85.04;101333.59;5060228;28;45461;-60
2023/11/08 04:46:43;;;;;;;;;5.67;2.00;;;;;8.97;85.11;101327.28;5042922;28;65473;-59
2023/11/08 04:49:09;;;;;;;;;3.00;2.00;;;;;8.99;85.34;101341.34;5070404;28;45411;-59
2023/11/08 04:51:34;;;;;;;;;2.00;2.00;;;;;8.98;84.97;101331.63;5075655;28;45547;-59
2023/11/08 04:53:59;;;;;;;;;2.33;2.33;;;;;9.01;84.62;101336.84;5069467;28;64432;-59
2023/11/08 04:56:24;;;;;;;;;3.00;2.00;;;;;9.03;84.76;101335.00;5062153;28;66457;-59
2023/11/08 04:58:50;;;;;;;;;3.67;2.67;;;;;9.03;84.99;101332.34;5064666;28;75859;-59
2023/11/08 05:01:15;;;;;;;;;2.00;2.00;;;;;9.03;84.41;101326.19;5061022;28;45481;-59
2023/11/08 05:03:40;;;;;;;;;1.00;1.00;;;;;9.03;84.30;101326.19;5058854;28;68141;-59
2023/11/08 05:06:07;;;;;;;;;3.00;1.33;;;;;9.01;84.60;101317.38;5067179;28;63921;-59
2023/11/08 05:08:32;;;;;;;;;4.33;2.67;;;;;9.02;84.05;101322.66;5061473;28;46224;-59
2023/11/08 05:10:58;;;;;;;;;4.00;4.00;;;;;9.01;84.92;101326.25;5061618;28;45460;-59
2023/11/08 05:13:24;;;;;;;;;2.00;2.00;;;;;8.99;84.54;101325.41;5074317;28;45394;-59
2023/11/08 05:15:50;;;;;;;;;3.33;2.00;;;;;9.00;84.24;101327.16;5060397;28;45320;-59
2023/11/08 05:18:15;;;;;;;;;5.67;4.00;;;;;8.96;86.33;101325.53;5059953;28;45977;-59
2023/11/08 05:20:43;;;;;;;;;2.00;2.00;;;;;8.93;84.67;101333.59;5060226;28;45257;-59
2023/11/08 05:23:08;;;;;;;;;2.67;2.67;;;;;8.89;84.66;101324.00;5060136;28;45375;-59
2023/11/08 05:25:33;;;;;;;;;2.33;2.33;;;;;8.87;85.18;101326.72;5055039;28;45380;-59
2023/11/08 05:27:59;;;;;;;;;2.67;2.67;;;;;8.87;85.32;101323.19;5059607;28;45329;-59
2023/11/08 05:30:24;;;;;;;;;2.00;2.00;;;;;8.83;86.82;101314.47;5059959;28;45398;-59
2023/11/08 05:32:50;;;;;;;;;3.00;3.00;;;;;8.82;86.54;101320.69;5060098;28;45382;-59
2023/11/08 05:35:15;;;;;;;;;1.33;1.33;;;;;8.78;86.14;101314.63;5058549;28;64401;-59
2023/11/08 05:37:43;;;;;;;;;6.00;5.00;;;;;8.80;87.45;101319.00;5059901;28;46006;-59
2023/11/08 05:40:12;;;;;;;;;3.00;3.00;;;;;8.81;85.67;101318.97;5059158;28;45399;-60
2023/11/08 05:42:38;;;;;;;;;2.33;2.00;;;;;8.82;85.79;101315.38;5051949;28;45360;-59
2023/11/08 05:45:04;;;;;;;;;4.00;4.00;;;;;8.85;85.86;101319.72;5059162;28;45554;-59
2023/11/08 05:47:30;;;;;;;;;2.67;2.67;;;;;8.84;86.79;101296.75;5059102;28;46741;-59
2023/11/08 05:49:56;;;;;;;;;4.33;3.00;;;;;8.84;87.30;101304.72;5058945;28;72303;-59
2023/11/08 05:52:21;;;;;;;;;2.00;2.00;;;;;8.78;87.31;101298.72;5059477;28;45607;-59
2023/11/08 05:54:47;;;;;;;;;4.00;4.00;;;;;8.80;87.41;101292.47;5065236;28;46128;-59
2023/11/08 05:57:14;;;;;;;;;3.33;2.33;;;;;8.77;88.29;101299.66;5059079;28;46451;-60
2023/11/08 05:59:41;;;;;;;;;4.00;4.00;;;;;8.77;87.73;101304.06;5061509;28;45342;-59
2023/11/08 06:02:07;;;;;;;;;5.00;3.00;;;;;8.74;87.75;101299.72;5066635;28;45286;-58
2023/11/08 06:04:34;;;;;;;;;4.00;4.00;;;;;8.75;87.55;101311.22;5057826;28;45498;-59
2023/11/08 06:06:59;;;;;;;;;6.00;3.33;;;;;8.72;87.76;101313.97;5058926;28;47254;-59
2023/11/08 06:09:25;;;;;;;;;4.67;4.00;;;;;8.72;88.28;101317.50;5057584;28;71925;-58
2023/11/08 06:11:50;;;;;;;;;3.33;3.33;;;;;8.71;88.97;101315.75;5061791;28;69300;-58
2023/11/08 06:14:16;;;;;;;;;3.67;3.67;;;;;8.71;88.37;101313.13;5057614;28;65281;-59
2023/11/08 06:16:41;;;;;;;;;3.67;3.67;;;;;8.65;89.96;101301.84;5062294;28;47915;-58
2023/11/08 06:19:07;;;;;;;;;4.33;4.33;;;;;8.63;89.52;101295.72;5059257;28;45658;-58
2023/11/08 06:21:33;;;;;;;;;3.00;3.00;;;;;8.59;89.74;101305.56;5061863;28;45310;-58
2023/11/08 06:23:59;;;;;;;;;4.00;4.00;;;;;8.56;90.23;101303.03;5058303;28;45527;-58
2023/11/08 06:26:25;;;;;;;;;5.67;4.67;;;;;8.43;91.14;101306.06;5053439;28;45569;-59
2023/11/08 06:28:50;;;;;;;;;5.67;4.67;;;;;8.46;90.51;101304.25;5057889;27;73396;-59
2023/11/08 06:31:15;;;;;;;;;7.33;4.00;;;;;8.40;90.74;101302.63;5055702;28;69880;-58
2023/11/08 06:33:41;;;;;;;;;7.00;6.00;;;;;8.36;91.38;101304.50;5089808;27;68956;-59
2023/11/08 06:36:06;;;;;;;;;5.00;5.00;;;;;8.34;92.49;101306.34;5058879;28;45408;-59
2023/11/08 06:38:32;;;;;;;;;7.00;6.00;;;;;8.32;91.98;101310.84;5058732;28;45460;-59
2023/11/08 06:40:57;;;;;;;;;5.00;4.33;;;;;8.32;91.08;101320.56;5060824;28;45314;-59
2023/11/08 06:43:22;;;;;;;;;5.00;3.00;;;;;8.33;91.45;101327.59;5057310;28;70511;-59
2023/11/08 06:45:49;;;;;;;;;9.67;5.33;;;;;8.34;90.58;101330.19;5064319;28;45666;-59
2023/11/08 06:48:14;;;;;;;;;8.00;7.00;;;;;8.35;91.73;101329.28;5064527;28;45568;-59
2023/11/08 06:50:39;;;;;;;;;5.00;5.00;;;;;8.31;91.27;101332.94;5057429;28;64763;-58
2023/11/08 06:53:04;;;;;;;;;2.00;2.00;;;;;8.30;91.20;101335.66;5056945;28;70682;-58
2023/11/08 06:55:32;;;;;;;;;9.00;6.00;;;;;8.31;91.16;101337.41;5088386;27;62505;-58
2023/11/08 06:58:01;;;;;;;;;7.33;7.00;;;;;8.35;90.89;101339.03;5058553;28;45556;-58
2023/11/08 07:00:27;;;;;;;;;9.00;7.00;;;;;8.35;91.35;101345.19;5076362;27;45405;-59
2023/11/08 07:02:53;;;;;;;;;4.00;4.00;;;;;8.34;91.52;101342.59;5059421;28;45439;-58
2023/11/08 07:05:18;;;;;;;;;6.33;5.00;;;;;8.33;91.81;101347.03;5057704;28;74704;-59
2023/11/08 07:07:44;;;;;;;;;4.33;4.33;;;;;8.28;92.40;101344.53;5059419;28;45345;-59
2023/11/08 07:10:11;;;;;;;;;5.00;3.67;;;;;8.26;92.09;101348.13;5061935;28;45279;-59
2023/11/08 07:12:40;;;;;;;;;5.00;4.00;;;;;8.24;91.54;101348.19;5066170;28;45667;-59
2023/11/08 07:15:05;;;;;;;;;2.00;2.00;;;;;8.30;90.92;101347.13;5054692;28;46207;-59
2023/11/08 07:17:31;;;;;;;;;6.00;5.00;;;;;8.29;91.78;101355.97;5056623;28;45542;-58
2023/11/08 07:19:59;;;;;;;;;6.33;4.67;;;;;8.32;91.45;101358.56;5058680;28;45317;-58
2023/11/08 07:22:25;;;;;;;;;4.00;4.00;;;;;8.37;90.75;101350.44;5057613;28;45389;-58
2023/11/08 07:24:51;;;;;;;;;1.67;1.67;;;;;8.46;90.51;101350.19;5040311;28;46371;-60
2023/11/08 07:27:16;;;;;;;;;3.67;3.67;;;;;8.52;90.37;101349.97;5057570;28;45500;-56
2023/11/08 07:29:41;;;;;;;;;7.00;3.33;;;;;8.56;90.01;101348.09;5059288;28;49066;-54
2023/11/08 07:32:08;;;;;;;;;7.67;5.00;;;;;8.61;89.89;101344.38;5052802;28;45513;-54
2023/11/08 07:34:34;;;;;;;;;3.00;1.00;;;;;8.64;90.32;101347.84;5057269;28;46221;-54
2023/11/08 07:36:59;;;;;;;;;5.33;4.67;;;;;8.59;90.04;101342.69;5055542;28;45540;-53
2023/11/08 07:39:25;;;;;;;;;2.67;2.67;;;;;8.71;89.73;101344.94;5087582;27;67963;-54
2023/11/08 07:41:51;;;;;;;;;3.00;3.00;;;;;8.79;89.52;101344.69;5057409;28;57767;-54
2023/11/08 07:44:16;;;;;;;;;5.00;3.67;;;;;8.90;89.03;101341.66;5057122;28;46159;-53
2023/11/08 07:46:41;;;;;;;;;6.00;5.00;;;;;8.99;88.22;101349.28;5056419;28;73108;-54
2023/11/08 07:49:07;;;;;;;;;4.00;4.00;;;;;9.02;87.83;101346.56;5057487;28;68388;-54
2023/11/08 07:51:32;;;;;;;;;3.33;3.33;;;;;9.14;87.60;101347.03;5086609;27;45551;-55
2023/11/08 07:53:59;;;;;;;;;5.67;4.33;;;;;9.16;87.32;101348.69;5058439;28;66866;-53
2023/11/08 07:56:25;;;;;;;;;6.67;6.00;;;;;9.16;87.24;101348.69;5059533;28;45378;-54
2023/11/08 07:58:52;;;;;;;;;5.00;3.67;;;;;9.15;86.82;101354.97;5056918;28;45320;-54
2023/11/08 08:01:18;;;;;;;;;6.00;4.33;;;;;9.25;86.79;101351.03;5062019;28;45382;-54
2023/11/08 08:03:44;;;;;;;;;6.33;4.00;;;;;9.37;86.03;101343.56;5059143;28;47178;-56
2023/11/08 08:06:10;;;;;;;;;0.00;0.00;;;;;9.43;84.87;101354.81;5058898;28;45800;-54
2023/11/08 08:08:35;;;;;;;;;3.00;3.00;;;;;9.42;84.59;101346.91;5059439;28;60434;-54
2023/11/08 08:11:01;;;;;;;;;4.67;3.33;;;;;9.42;84.28;101350.41;5038515;28;51058;-56
2023/11/08 08:13:26;;;;;;;;;4.33;4.00;;;;;9.38;84.16;101353.25;5058296;28;46158;-52
2023/11/08 08:15:51;;;;;;;;;5.00;4.00;;;;;9.34;84.14;101341.03;5058414;28;69046;-54
2023/11/08 08:18:17;;;;;;;;;4.67;4.00;;;;;9.40;84.80;101352.28;5059828;28;69287;-54
2023/11/08 08:20:43;;;;;;;;;6.33;4.33;;;;;9.40;84.21;101359.38;5060197;28;45589;-54
2023/11/08 08:23:10;;;;;;;;;3.67;3.67;;;;;9.40;84.16;101354.09;5057146;28;46250;-54
2023/11/08 08:25:41;;;;;;;;;3.00;3.00;;;;;9.41;84.38;101356.69;5063037;28;45747;-54
2023/11/08 08:28:08;;;;;;;;;4.00;4.00;;;;;9.52;84.38;101353.63;5057042;28;45551;-54
2023/11/08 08:30:33;;;;;;;;;5.00;5.00;;;;;9.54;84.19;101348.25;5060828;28;45636;-53
2023/11/08 08:33:00;;;;;;;;;6.00;2.67;;;;;9.48;83.91;101354.66;5059396;28;46466;-54
2023/11/08 08:35:28;;;;;;;;;3.00;3.00;;;;;9.57;83.89;101356.97;5049900;28;45483;-54
2023/11/08 08:37:53;;;;;;;;;6.33;3.67;;;;;9.64;83.96;101354.09;5058599;28;45452;-54
2023/11/08 08:40:18;;;;;;;;;5.00;3.33;;;;;9.70;83.61;101354.72;5058273;28;66356;-54
2023/11/08 08:42:44;;;;;;;;;3.33;3.00;;;;;9.74;83.12;101366.97;5057703;28;46360;-55
2023/11/08 08:45:09;;;;;;;;;5.33;4.00;;;;;9.84;83.02;101367.50;5056713;28;72542;-54
2023/11/08 08:47:39;;;;;;;;;4.33;4.33;;;;;9.86;82.40;101367.44;5058240;28;45814;-54
2023/11/08 08:50:05;;;;;;;;;3.33;3.33;;;;;9.87;82.79;101350.56;5054751;28;45513;-55
2023/11/08 08:52:31;;;;;;;;;6.33;3.00;;;;;9.97;82.64;101345.75;5062322;28;46014;-55
2023/11/08 08:54:56;;;;;;;;;7.67;4.67;;;;;9.93;82.31;101342.34;5057155;28;45531;-53
2023/11/08 08:57:22;;;;;;;;;6.00;5.00;;;;;9.85;82.70;101341.78;5058352;28;68129;-55
2023/11/08 08:59:47;;;;;;;;;7.00;4.00;;;;;9.82;83.11;101332.13;5088223;27;45494;-55
2023/11/08 09:02:12;;;;;;;;;5.33;5.33;;;;;9.79;82.78;101329.63;5056576;28;69501;-55
2023/11/08 09:04:39;;;;;;;;;5.67;5.00;;;;;9.89;83.23;101330.97;5059881;28;45311;-55
2023/11/08 09:07:04;;;;;;;;;7.00;6.00;;;;;10.05;82.62;101320.63;5058801;28;45438;-54
2023/11/08 09:09:30;;;;;;;;;6.00;4.33;;;;;10.16;81.81;101322.00;5057488;28;45607;-54
2023/11/08 09:11:57;;;;;;;;;4.00;4.00;;;;;10.26;81.60;101326.88;5055774;28;45966;-54
2023/11/08 09:14:23;;;;;;;;;4.67;4.33;;;;;10.27;80.98;101322.41;5058674;28;45343;-54
2023/11/08 09:16:49;;;;;;;;;3.33;3.00;;;;;10.44;81.40;101324.41;5059137;28;45268;-55
2023/11/08 09:19:14;;;;;;;;;7.67;3.00;;;;;10.64;79.30;101320.94;5058641;28;45439;-54
2023/11/08 09:21:39;;;;;;;;;5.00;4.00;;;;;10.94;79.20;101323.22;5057348;28;75507;-55
2023/11/08 09:24:06;;;;;;;;;7.67;5.67;;;;;11.16;77.60;101320.47;5054857;28;49492;-54
2023/11/08 09:26:33;;;;;;;;;6.33;4.00;;;;;11.38;77.40;101324.84;5058620;28;45497;-55
2023/11/08 09:28:58;;;;;;;;;5.67;5.00;;;;;11.41;75.83;101333.56;5053361;28;45461;-55
2023/11/08 09:31:26;;;;;;;;;5.00;5.00;;;;;11.38;75.69;101331.03;5057489;28;45371;-55
2023/11/08 09:33:52;;;;;;;;;3.00;3.00;;;;;11.29;75.93;101314.59;5087651;27;46305;-55
2023/11/08 09:36:18;;;;;;;;;6.33;4.00;;;;;11.27;76.20;101312.00;5057578;28;45469;-55
2023/11/08 09:38:44;;;;;;;;;7.00;3.00;;;;;11.30;75.33;101311.84;5056618;28;45272;-55
2023/11/08 09:41:09;;;;;;;;;4.33;4.33;;;;;11.25;74.89;101305.88;5058474;28;46328;-54
2023/11/08 09:43:36;;;;;;;;;5.67;5.00;;;;;11.13;75.64;101309.94;5051536;28;73046;-54
2023/11/08 09:46:05;;;;;;;;;2.00;2.00;;;;;11.09;76.07;101303.03;5058003;28;45525;-55
2023/11/08 09:48:30;;;;;;;;;4.67;4.67;;;;;11.16;76.90;101296.53;5058614;28;45445;-55
2023/11/08 09:50:56;;;;;;;;;5.00;5.00;;;;;11.25;76.85;101305.88;5089509;27;52413;-54
2023/11/08 09:53:21;;;;;;;;;5.00;3.00;;;;;11.37;75.57;101294.69;5056868;27;45430;-54
2023/11/08 09:55:48;;;;;;;;;5.00;3.67;;;;;11.48;74.50;101298.66;5058351;28;45520;-55
2023/11/08 09:58:14;;;;;;;;;4.00;4.00;;;;;11.61;73.61;101307.81;5057496;28;45557;-55
2023/11/08 10:00:40;;;;;;;;;3.67;3.33;;;;;11.87;73.30;101303.06;5058408;28;49707;-54
2023/11/08 10:03:08;;;;;;;;;3.00;1.00;;;;;12.25;72.29;101292.38;5062056;28;45433;-54
2023/11/08 10:05:37;;;;;;;;;5.67;4.00;;;;;12.49;70.64;101273.41;5059021;28;45355;-54
2023/11/08 10:08:11;;;;;;;;;3.33;3.00;;;;;12.60;70.68;101267.53;5055950;28;45556;-55
2023/11/08 10:10:37;;;;;;;;;4.33;2.00;;;;;12.58;70.26;101268.47;5057722;28;46855;-53
2023/11/08 10:13:05;;;;;;;;;2.00;1.67;;;;;12.60;68.94;101271.06;5056617;28;45354;-54
2023/11/08 10:15:33;;;;;;;;;2.67;2.00;;;;;13.00;68.46;101260.13;5057987;28;45281;-56
2023/11/08 10:17:58;;;;;;;;;2.67;2.33;;;;;13.73;68.87;101257.94;5056064;28;45359;-54
2023/11/08 10:20:27;;;;;;;;;3.00;3.00;;;;;14.18;66.13;101259.91;5057463;28;75603;-55
2023/11/08 10:22:54;;;;;;;;;3.00;3.00;;;;;14.27;66.23;101246.00;5055903;28;45438;-55
2023/11/08 10:25:19;;;;;;;;;6.67;3.00;;;;;14.79;65.67;101241.19;5058579;28;45586;-55
2023/11/08 10:28:00;;;;;;;;;3.33;3.00;;;;;15.39;63.16;101245.50;5055246;28;45355;-55
2023/11/08 10:30:26;;;;;;;;;7.67;3.00;;;;;15.65;62.64;101232.28;5048765;28;45700;-54
2023/11/08 10:33:06;;;;;;;;;0.67;0.67;;;;;15.62;58.71;101246.72;5052527;28;45607;-55
2023/11/08 10:35:35;;;;;;;;;3.33;3.00;;;;;15.19;58.51;101241.44;5056846;28;45370;-55
2023/11/08 10:38:02;;;;;;;;;2.33;2.33;;;;;14.58;61.33;101236.16;5058057;28;45628;-54
2023/11/08 10:40:29;;;;;;;;;2.00;2.00;;;;;14.27;62.75;101235.28;5090238;27;45654;-54
2023/11/08 10:42:57;;;;;;;;;4.00;2.33;;;;;13.87;62.68;101213.53;5057491;28;45280;-55
2023/11/08 10:45:23;;;;;;;;;4.67;3.00;;;;;13.69;64.18;101221.66;5056913;28;45434;-55
2023/11/08 10:47:49;;;;;;;;;3.00;2.00;;;;;13.46;65.03;101214.91;5057778;28;45424;-55
2023/11/08 10:50:18;;;;;;;;;3.00;3.00;;;;;13.29;65.68;101202.47;5056655;28;46407;-56
2023/11/08 10:52:46;;;;;;;;;1.00;1.00;;;;;13.17;65.81;101187.13;5057514;28;45814;-55
2023/11/08 10:55:11;;;;;;;;;3.00;2.00;;;;;13.21;66.77;101184.19;5057544;28;45299;-54
2023/11/08 10:57:40;;;;;;;;;2.00;2.00;;;;;13.28;66.28;101182.03;5057911;28;45910;-55
2023/11/08 11:00:08;;;;;;;;;3.00;1.33;;;;;13.35;66.65;101179.88;5062392;28;48456;-56
2023/11/08 11:02:43;;;;;;;;;5.00;2.00;;;;;13.48;65.96;101178.28;5065372;28;45450;-55
2023/11/08 11:05:09;;;;;;;;;1.00;1.00;;;;;13.52;66.17;101168.31;5057747;28;45427;-55
2023/11/08 11:07:40;;;;;;;;;2.33;1.00;;;;;13.37;65.58;101173.53;5057993;28;45418;-55
2023/11/08 11:10:10;;;;;;;;;1.67;1.67;;;;;13.24;66.03;101160.00;5061562;28;45611;-55
2023/11/08 11:12:59;;;;;;;;;2.33;1.00;;;;;13.05;66.30;101168.16;5058999;28;45427;-56
2023/11/08 11:15:53;;;;;;;;;1.67;1.67;;;;;12.89;66.96;101160.13;5068487;28;45594;-55
2023/11/08 11:18:23;;;;;;;;;1.00;1.00;;;;;12.74;67.88;101147.59;5055856;28;45646;-55
2023/11/08 11:21:01;;;;;;;;;2.00;1.00;;;;;12.63;68.07;101142.81;5055410;28;47807;-54
2023/11/08 11:23:37;;;;;;;;;1.00;1.00;;;;;12.62;68.88;101137.56;5049712;28;45416;-56
2023/11/08 11:26:05;;;;;;;;;2.00;2.00;;;;;12.65;69.03;101138.25;5092458;27;45432;-55
2023/11/08 11:28:52;;;;;;;;;1.00;1.00;;;;;12.73;68.82;101137.84;5058241;28;45367;-56